sensor_id;sensor_type;location;lat;lon;timestamp;temperature;humidity
40053;DHT22;25758;48.200;16.338;2023-04-25T00:00:16;12.20;99.90
40053;DHT22;25758;48.200;16.338;2023-04-25T00:02:42;12.20;99.90
40053;DHT22;25758;48.200;16.338;2023-04-25T00:05:08;12.20;99.90
40053;DHT22;25758;48.200;16.338;2023-04-25T00:07:34;12.10;99.90
40053;DHT22;25758;48.200;16.338;2023-04-25T00:10:00;12.10;99.90
40053;DHT22;25758;48.200;16.338;2023-04-25T00:12:26;12.10;99.90
40053;DHT22;25758;48.200;16.338;2023-04-25T00:14:54;12.20;99.90
40053;DHT22;25758;48.200;16.338;2023-04-25T00:17:22;12.10;99.90
40053;DHT22;25758;48.200;16.338;2023-04-25T00:19:50;12.10;99.90
40053;DHT22;25758;48.200;16.338;2023-04-25T00:22:16;12.10;99.90
40053;DHT22;25758;48.200;16.338;2023-04-25T00:24:42;12.10;99.90
40053;DHT22;25758;48.200;16.338;2023-04-25T00:27:08;12.10;99.90
40053;DHT22;25758;48.200;16.338;2023-04-25T00:29:34;12.10;99.90
40053;DHT22;25758;48.200;16.338;2023-04-25T00:32:00;12.10;99.90
40053;DHT22;25758;48.200;16.338;2023-04-25T00:34:25;12.10;99.90
40053;DHT22;25758;48.200;16.338;2023-04-25T00:36:51;12.10;99.90
40053;DHT22;25758;48.200;16.338;2023-04-25T00:39:17;12.10;99.90
40053;DHT22;25758;48.200;16.338;2023-04-25T00:41:43;12.10;99.90
40053;DHT22;25758;48.200;16.338;2023-04-25T00:44:11;12.00;99.90
40053;DHT22;25758;48.200;16.338;2023-04-25T00:46:38;12.00;99.90
40053;DHT22;25758;48.200;16.338;2023-04-25T00:49:04;12.10;99.90
40053;DHT22;25758;48.200;16.338;2023-04-25T00:51:30;12.00;99.90
40053;DHT22;25758;48.200;16.338;2023-04-25T00:53:57;12.00;99.90
40053;DHT22;25758;48.200;16.338;2023-04-25T00:56:23;12.00;99.90
40053;DHT22;25758;48.200;16.338;2023-04-25T00:58:51;12.00;99.90
40053;DHT22;25758;48.200;16.338;2023-04-25T01:01:18;12.00;99.90
40053;DHT22;25758;48.200;16.338;2023-04-25T01:03:46;12.00;99.90
40053;DHT22;25758;48.200;16.338;2023-04-25T01:06:12;12.00;99.90
40053;DHT22;25758;48.200;16.338;2023-04-25T01:08:38;12.00;99.90
40053;DHT22;25758;48.200;16.338;2023-04-25T01:11:05;12.00;99.90
40053;DHT22;25758;48.200;16.338;2023-04-25T01:13:31;12.00;99.90
40053;DHT22;25758;48.200;16.338;2023-04-25T01:15:58;12.00;99.90
40053;DHT22;25758;48.200;16.338;2023-04-25T01:18:24;12.00;99.90
40053;DHT22;25758;48.200;16.338;2023-04-25T01:20:53;12.00;99.90
40053;DHT22;25758;48.200;16.338;2023-04-25T01:23:21;12.00;99.90
40053;DHT22;25758;48.200;16.338;2023-04-25T01:25:48;11.90;99.90
40053;DHT22;25758;48.200;16.338;2023-04-25T01:28:14;11.90;99.90
40053;DHT22;25758;48.200;16.338;2023-04-25T01:30:40;11.90;99.90
40053;DHT22;25758;48.200;16.338;2023-04-25T01:33:08;11.90;99.90
40053;DHT22;25758;48.200;16.338;2023-04-25T01:35:34;11.90;99.90
40053;DHT22;25758;48.200;16.338;2023-04-25T01:38:00;11.90;99.90
40053;DHT22;25758;48.200;16.338;2023-04-25T01:40:27;11.90;99.90
40053;DHT22;25758;48.200;16.338;2023-04-25T01:42:52;11.80;99.90
40053;DHT22;25758;48.200;16.338;2023-04-25T01:45:18;11.90;99.90
40053;DHT22;25758;48.200;16.338;2023-04-25T01:47:44;11.90;99.90
40053;DHT22;25758;48.200;16.338;2023-04-25T01:50:16;11.80;99.90
40053;DHT22;25758;48.200;16.338;2023-04-25T01:52:42;11.80;99.90
40053;DHT22;25758;48.200;16.338;2023-04-25T01:55:08;11.80;99.90
40053;DHT22;25758;48.200;16.338;2023-04-25T01:57:33;11.80;99.90
40053;DHT22;25758;48.200;16.338;2023-04-25T02:00:02;11.80;99.90
40053;DHT22;25758;48.200;16.338;2023-04-25T02:02:28;11.80;99.90
40053;DHT22;25758;48.200;16.338;2023-04-25T02:04:54;11.80;99.90
40053;DHT22;25758;48.200;16.338;2023-04-25T02:07:20;11.80;99.90
40053;DHT22;25758;48.200;16.338;2023-04-25T02:09:46;11.80;99.90
40053;DHT22;25758;48.200;16.338;2023-04-25T02:12:11;11.80;99.90
40053;DHT22;25758;48.200;16.338;2023-04-25T02:14:37;11.70;99.90
40053;DHT22;25758;48.200;16.338;2023-04-25T02:17:03;11.80;99.90
40053;DHT22;25758;48.200;16.338;2023-04-25T02:19:28;11.70;99.90
40053;DHT22;25758;48.200;16.338;2023-04-25T02:21:54;11.70;99.90
40053;DHT22;25758;48.200;16.338;2023-04-25T02:24:20;11.70;99.90
40053;DHT22;25758;48.200;16.338;2023-04-25T02:26:46;11.70;99.90
40053;DHT22;25758;48.200;16.338;2023-04-25T02:29:12;11.70;99.90
40053;DHT22;25758;48.200;16.338;2023-04-25T02:31:38;11.70;99.90
40053;DHT22;25758;48.200;16.338;2023-04-25T02:34:03;11.70;99.90
40053;DHT22;25758;48.200;16.338;2023-04-25T02:36:30;11.70;99.90
40053;DHT22;25758;48.200;16.338;2023-04-25T02:38:57;11.60;99.90
40053;DHT22;25758;48.200;16.338;2023-04-25T02:41:23;11.60;99.90
40053;DHT22;25758;48.200;16.338;2023-04-25T02:43:48;11.60;99.90
40053;DHT22;25758;48.200;16.338;2023-04-25T02:46:14;11.60;99.90
40053;DHT22;25758;48.200;16.338;2023-04-25T02:48:40;11.60;99.90
40053;DHT22;25758;48.200;16.338;2023-04-25T02:51:05;11.60;99.90
40053;DHT22;25758;48.200;16.338;2023-04-25T02:53:31;11.60;99.90
40053;DHT22;25758;48.200;16.338;2023-04-25T02:55:57;11.60;99.90
40053;DHT22;25758;48.200;16.338;2023-04-25T02:58:24;11.50;99.90
40053;DHT22;25758;48.200;16.338;2023-04-25T03:00:50;11.50;99.90
40053;DHT22;25758;48.200;16.338;2023-04-25T03:03:15;11.50;99.90
40053;DHT22;25758;48.200;16.338;2023-04-25T03:05:43;11.50;99.90
40053;DHT22;25758;48.200;16.338;2023-04-25T03:08:09;11.50;99.90
40053;DHT22;25758;48.200;16.338;2023-04-25T03:10:35;11.50;99.90
40053;DHT22;25758;48.200;16.338;2023-04-25T03:13:00;11.50;99.90
40053;DHT22;25758;48.200;16.338;2023-04-25T03:15:26;11.50;99.90
40053;DHT22;25758;48.200;16.338;2023-04-25T03:17:51;11.40;99.90
40053;DHT22;25758;48.200;16.338;2023-04-25T03:20:17;11.50;99.90
40053;DHT22;25758;48.200;16.338;2023-04-25T03:22:43;11.50;99.90
40053;DHT22;25758;48.200;16.338;2023-04-25T03:25:09;11.50;99.90
40053;DHT22;25758;48.200;16.338;2023-04-25T03:27:35;11.40;99.90
40053;DHT22;25758;48.200;16.338;2023-04-25T03:30:01;11.40;99.90
40053;DHT22;25758;48.200;16.338;2023-04-25T03:32:26;11.40;99.90
40053;DHT22;25758;48.200;16.338;2023-04-25T03:34:52;11.40;99.90
40053;DHT22;25758;48.200;16.338;2023-04-25T03:37:17;11.30;99.90
40053;DHT22;25758;48.200;16.338;2023-04-25T03:39:43;11.30;99.90
40053;DHT22;25758;48.200;16.338;2023-04-25T03:42:09;11.30;99.90
40053;DHT22;25758;48.200;16.338;2023-04-25T03:44:34;11.30;99.90
40053;DHT22;25758;48.200;16.338;2023-04-25T03:47:00;11.20;99.90
40053;DHT22;25758;48.200;16.338;2023-04-25T03:49:26;11.30;99.90
40053;DHT22;25758;48.200;16.338;2023-04-25T03:51:51;11.20;99.90
40053;DHT22;25758;48.200;16.338;2023-04-25T03:54:17;11.20;99.90
40053;DHT22;25758;48.200;16.338;2023-04-25T03:56:43;11.20;99.90
40053;DHT22;25758;48.200;16.338;2023-04-25T03:59:08;11.20;99.90
40053;DHT22;25758;48.200;16.338;2023-04-25T04:01:34;11.20;99.90
40053;DHT22;25758;48.200;16.338;2023-04-25T04:04:00;11.20;99.90
40053;DHT22;25758;48.200;16.338;2023-04-25T04:06:26;11.20;99.90
40053;DHT22;25758;48.200;16.338;2023-04-25T04:08:52;11.20;99.90
40053;DHT22;25758;48.200;16.338;2023-04-25T04:11:17;11.10;99.90
40053;DHT22;25758;48.200;16.338;2023-04-25T04:13:43;11.10;99.90
40053;DHT22;25758;48.200;16.338;2023-04-25T04:16:09;11.10;99.90
40053;DHT22;25758;48.200;16.338;2023-04-25T04:18:34;11.10;99.90
40053;DHT22;25758;48.200;16.338;2023-04-25T04:21:01;11.10;99.90
40053;DHT22;25758;48.200;16.338;2023-04-25T04:23:26;11.10;99.90
40053;DHT22;25758;48.200;16.338;2023-04-25T04:25:53;11.10;99.90
40053;DHT22;25758;48.200;16.338;2023-04-25T04:28:19;11.10;99.90
40053;DHT22;25758;48.200;16.338;2023-04-25T04:30:46;11.10;99.90
40053;DHT22;25758;48.200;16.338;2023-04-25T04:33:11;11.00;99.90
40053;DHT22;25758;48.200;16.338;2023-04-25T04:35:37;11.00;99.90
40053;DHT22;25758;48.200;16.338;2023-04-25T04:38:03;11.00;99.90
40053;DHT22;25758;48.200;16.338;2023-04-25T04:40:29;11.00;99.90
40053;DHT22;25758;48.200;16.338;2023-04-25T04:42:56;11.00;99.90
40053;DHT22;25758;48.200;16.338;2023-04-25T04:45:23;11.00;99.90
40053;DHT22;25758;48.200;16.338;2023-04-25T04:47:49;11.00;99.90
40053;DHT22;25758;48.200;16.338;2023-04-25T04:50:15;11.00;99.90
40053;DHT22;25758;48.200;16.338;2023-04-25T04:52:41;11.00;99.90
40053;DHT22;25758;48.200;16.338;2023-04-25T04:55:07;11.00;99.90
40053;DHT22;25758;48.200;16.338;2023-04-25T04:57:34;11.00;99.90
40053;DHT22;25758;48.200;16.338;2023-04-25T05:00:00;11.00;99.90
40053;DHT22;25758;48.200;16.338;2023-04-25T05:02:26;11.00;99.90
40053;DHT22;25758;48.200;16.338;2023-04-25T05:04:52;11.00;99.90
40053;DHT22;25758;48.200;16.338;2023-04-25T05:07:18;11.00;99.90
40053;DHT22;25758;48.200;16.338;2023-04-25T05:09:44;11.00;99.90
40053;DHT22;25758;48.200;16.338;2023-04-25T05:12:10;11.00;99.90
40053;DHT22;25758;48.200;16.338;2023-04-25T05:14:35;10.90;99.90
40053;DHT22;25758;48.200;16.338;2023-04-25T05:17:01;10.90;99.90
40053;DHT22;25758;48.200;16.338;2023-04-25T05:19:30;10.90;99.90
40053;DHT22;25758;48.200;16.338;2023-04-25T05:21:55;10.90;99.90
40053;DHT22;25758;48.200;16.338;2023-04-25T05:24:21;10.90;99.90
40053;DHT22;25758;48.200;16.338;2023-04-25T05:26:47;10.80;99.90
40053;DHT22;25758;48.200;16.338;2023-04-25T05:29:12;10.80;99.90
40053;DHT22;25758;48.200;16.338;2023-04-25T05:31:38;10.80;99.90
40053;DHT22;25758;48.200;16.338;2023-04-25T05:34:04;10.90;99.90
40053;DHT22;25758;48.200;16.338;2023-04-25T05:36:29;10.80;99.90
40053;DHT22;25758;48.200;16.338;2023-04-25T05:38:56;10.80;99.90
40053;DHT22;25758;48.200;16.338;2023-04-25T05:41:22;10.80;99.90
40053;DHT22;25758;48.200;16.338;2023-04-25T05:43:47;10.80;99.90
40053;DHT22;25758;48.200;16.338;2023-04-25T05:46:15;10.90;99.90
40053;DHT22;25758;48.200;16.338;2023-04-25T05:48:42;10.90;99.90
40053;DHT22;25758;48.200;16.338;2023-04-25T05:51:08;11.00;99.90
40053;DHT22;25758;48.200;16.338;2023-04-25T05:53:34;11.00;99.90
40053;DHT22;25758;48.200;16.338;2023-04-25T05:56:01;11.00;99.90
40053;DHT22;25758;48.200;16.338;2023-04-25T05:58:26;11.10;99.90
40053;DHT22;25758;48.200;16.338;2023-04-25T06:00:52;11.10;99.90
40053;DHT22;25758;48.200;16.338;2023-04-25T06:03:18;11.10;99.90
40053;DHT22;25758;48.200;16.338;2023-04-25T06:05:43;11.20;99.90
40053;DHT22;25758;48.200;16.338;2023-04-25T06:08:10;11.20;99.90
40053;DHT22;25758;48.200;16.338;2023-04-25T06:10:38;11.20;99.90
40053;DHT22;25758;48.200;16.338;2023-04-25T06:13:04;11.30;99.90
40053;DHT22;25758;48.200;16.338;2023-04-25T06:15:30;11.30;99.90
40053;DHT22;25758;48.200;16.338;2023-04-25T06:17:57;11.30;99.90
40053;DHT22;25758;48.200;16.338;2023-04-25T06:20:23;11.40;99.90
40053;DHT22;25758;48.200;16.338;2023-04-25T06:22:50;11.40;99.90
40053;DHT22;25758;48.200;16.338;2023-04-25T06:25:17;11.50;99.90
40053;DHT22;25758;48.200;16.338;2023-04-25T06:27:42;11.50;99.90
40053;DHT22;25758;48.200;16.338;2023-04-25T06:30:09;11.50;99.90
40053;DHT22;25758;48.200;16.338;2023-04-25T06:32:35;11.60;99.90
40053;DHT22;25758;48.200;16.338;2023-04-25T06:35:00;11.60;99.90
40053;DHT22;25758;48.200;16.338;2023-04-25T06:37:26;11.60;99.90
40053;DHT22;25758;48.200;16.338;2023-04-25T06:39:53;11.70;99.90
40053;DHT22;25758;48.200;16.338;2023-04-25T06:42:18;11.70;99.90
40053;DHT22;25758;48.200;16.338;2023-04-25T06:44:44;11.70;99.90
40053;DHT22;25758;48.200;16.338;2023-04-25T06:47:09;11.70;99.90
40053;DHT22;25758;48.200;16.338;2023-04-25T06:49:35;11.70;99.90
40053;DHT22;25758;48.200;16.338;2023-04-25T06:52:01;11.80;99.90
40053;DHT22;25758;48.200;16.338;2023-04-25T06:54:26;11.80;99.90
40053;DHT22;25758;48.200;16.338;2023-04-25T06:56:55;11.90;99.90
40053;DHT22;25758;48.200;16.338;2023-04-25T06:59:21;11.90;99.90
40053;DHT22;25758;48.200;16.338;2023-04-25T07:01:46;12.00;99.90
40053;DHT22;25758;48.200;16.338;2023-04-25T07:04:12;12.00;99.90
40053;DHT22;25758;48.200;16.338;2023-04-25T07:06:38;12.10;99.90
40053;DHT22;25758;48.200;16.338;2023-04-25T07:09:08;12.10;99.90
40053;DHT22;25758;48.200;16.338;2023-04-25T07:11:35;12.10;99.90
40053;DHT22;25758;48.200;16.338;2023-04-25T07:14:01;12.20;99.90
40053;DHT22;25758;48.200;16.338;2023-04-25T07:16:26;12.20;99.90
40053;DHT22;25758;48.200;16.338;2023-04-25T07:18:52;12.30;99.90
40053;DHT22;25758;48.200;16.338;2023-04-25T07:21:18;12.30;99.90
40053;DHT22;25758;48.200;16.338;2023-04-25T07:23:43;12.40;99.90
40053;DHT22;25758;48.200;16.338;2023-04-25T07:26:09;12.50;99.90
40053;DHT22;25758;48.200;16.338;2023-04-25T07:28:35;12.60;99.90
40053;DHT22;25758;48.200;16.338;2023-04-25T07:31:00;12.70;99.90
40053;DHT22;25758;48.200;16.338;2023-04-25T07:33:26;12.80;99.90
40053;DHT22;25758;48.200;16.338;2023-04-25T07:35:52;12.90;99.90
40053;DHT22;25758;48.200;16.338;2023-04-25T07:38:18;13.00;99.90
40053;DHT22;25758;48.200;16.338;2023-04-25T07:40:43;13.10;99.90
40053;DHT22;25758;48.200;16.338;2023-04-25T07:43:09;13.30;99.90
40053;DHT22;25758;48.200;16.338;2023-04-25T07:45:37;13.40;99.90
40053;DHT22;25758;48.200;16.338;2023-04-25T07:48:03;13.60;99.90
40053;DHT22;25758;48.200;16.338;2023-04-25T07:50:29;14.00;99.90
40053;DHT22;25758;48.200;16.338;2023-04-25T07:52:54;14.50;99.90
40053;DHT22;25758;48.200;16.338;2023-04-25T07:55:20;15.00;98.30
40053;DHT22;25758;48.200;16.338;2023-04-25T07:57:46;15.40;97.30
40053;DHT22;25758;48.200;16.338;2023-04-25T08:00:12;15.80;96.80
40053;DHT22;25758;48.200;16.338;2023-04-25T08:02:38;16.20;96.00
40053;DHT22;25758;48.200;16.338;2023-04-25T08:05:04;16.70;95.40
40053;DHT22;25758;48.200;16.338;2023-04-25T08:07:30;17.00;94.50
40053;DHT22;25758;48.200;16.338;2023-04-25T08:09:55;17.30;93.50
40053;DHT22;25758;48.200;16.338;2023-04-25T08:12:21;17.40;92.90
40053;DHT22;25758;48.200;16.338;2023-04-25T08:14:47;17.60;92.80
40053;DHT22;25758;48.200;16.338;2023-04-25T08:17:12;17.80;92.40
40053;DHT22;25758;48.200;16.338;2023-04-25T08:19:38;17.90;92.20
40053;DHT22;25758;48.200;16.338;2023-04-25T08:22:04;17.80;91.80
40053;DHT22;25758;48.200;16.338;2023-04-25T08:24:30;17.70;91.30
40053;DHT22;25758;48.200;16.338;2023-04-25T08:26:56;17.60;91.30
40053;DHT22;25758;48.200;16.338;2023-04-25T08:29:22;17.60;90.30
40053;DHT22;25758;48.200;16.338;2023-04-25T08:31:49;17.50;90.10
40053;DHT22;25758;48.200;16.338;2023-04-25T08:34:15;17.60;90.30
40053;DHT22;25758;48.200;16.338;2023-04-25T08:36:41;17.80;90.10
40053;DHT22;25758;48.200;16.338;2023-04-25T08:39:07;18.10;89.90
40053;DHT22;25758;48.200;16.338;2023-04-25T08:41:32;18.20;88.50
40053;DHT22;25758;48.200;16.338;2023-04-25T08:43:59;18.30;88.50
40053;DHT22;25758;48.200;16.338;2023-04-25T08:46:27;18.50;88.70
40053;DHT22;25758;48.200;16.338;2023-04-25T08:48:53;18.70;87.80
40053;DHT22;25758;48.200;16.338;2023-04-25T08:51:24;19.00;86.00
40053;DHT22;25758;48.200;16.338;2023-04-25T08:53:51;19.10;84.40
40053;DHT22;25758;48.200;16.338;2023-04-25T08:56:18;18.80;83.60
40053;DHT22;25758;48.200;16.338;2023-04-25T08:58:48;18.50;84.20
40053;DHT22;25758;48.200;16.338;2023-04-25T09:01:15;18.20;85.20
40053;DHT22;25758;48.200;16.338;2023-04-25T09:03:41;18.10;86.10
40053;DHT22;25758;48.200;16.338;2023-04-25T09:06:07;17.90;86.80
40053;DHT22;25758;48.200;16.338;2023-04-25T09:08:33;17.70;87.50
40053;DHT22;25758;48.200;16.338;2023-04-25T09:11:00;17.50;86.90
40053;DHT22;25758;48.200;16.338;2023-04-25T09:13:27;17.30;86.10
40053;DHT22;25758;48.200;16.338;2023-04-25T09:15:57;17.00;86.70
40053;DHT22;25758;48.200;16.338;2023-04-25T09:18:27;16.80;87.20
40053;DHT22;25758;48.200;16.338;2023-04-25T09:20:55;16.70;89.00
40053;DHT22;25758;48.200;16.338;2023-04-25T09:23:22;16.40;90.50
40053;DHT22;25758;48.200;16.338;2023-04-25T09:25:50;16.30;91.30
40053;DHT22;25758;48.200;16.338;2023-04-25T09:28:17;16.20;91.50
40053;DHT22;25758;48.200;16.338;2023-04-25T09:30:48;16.10;92.00
40053;DHT22;25758;48.200;16.338;2023-04-25T09:33:13;16.00;92.30
40053;DHT22;25758;48.200;16.338;2023-04-25T09:35:43;15.90;93.10
40053;DHT22;25758;48.200;16.338;2023-04-25T09:38:10;15.60;94.40
40053;DHT22;25758;48.200;16.338;2023-04-25T09:40:45;15.40;95.60
40053;DHT22;25758;48.200;16.338;2023-04-25T09:43:24;15.30;96.10
40053;DHT22;25758;48.200;16.338;2023-04-25T09:45:52;15.20;96.80
40053;DHT22;25758;48.200;16.338;2023-04-25T09:48:22;15.10;96.80
40053;DHT22;25758;48.200;16.338;2023-04-25T09:53:43;14.90;95.90
40053;DHT22;25758;48.200;16.338;2023-04-25T09:56:10;14.90;95.40
40053;DHT22;25758;48.200;16.338;2023-04-25T09:58:38;14.80;94.50
40053;DHT22;25758;48.200;16.338;2023-04-25T10:01:10;14.80;95.20
40053;DHT22;25758;48.200;16.338;2023-04-25T10:03:38;14.90;95.60
40053;DHT22;25758;48.200;16.338;2023-04-25T10:06:11;14.90;95.80
40053;DHT22;25758;48.200;16.338;2023-04-25T10:08:38;15.00;95.90
40053;DHT22;25758;48.200;16.338;2023-04-25T10:11:06;15.00;95.00
40053;DHT22;25758;48.200;16.338;2023-04-25T10:13:33;15.00;94.80
40053;DHT22;25758;48.200;16.338;2023-04-25T10:16:00;15.10;94.40
40053;DHT22;25758;48.200;16.338;2023-04-25T10:18:27;15.00;93.80
40053;DHT22;25758;48.200;16.338;2023-04-25T10:21:01;15.00;94.20
40053;DHT22;25758;48.200;16.338;2023-04-25T10:23:27;14.90;94.40
40053;DHT22;25758;48.200;16.338;2023-04-25T10:25:54;14.90;94.40
40053;DHT22;25758;48.200;16.338;2023-04-25T10:28:21;14.90;94.70
40053;DHT22;25758;48.200;16.338;2023-04-25T10:30:59;14.80;94.50
40053;DHT22;25758;48.200;16.338;2023-04-25T10:33:35;14.90;94.20
40053;DHT22;25758;48.200;16.338;2023-04-25T10:36:18;15.00;93.50
40053;DHT22;25758;48.200;16.338;2023-04-25T10:38:45;14.80;93.00
40053;DHT22;25758;48.200;16.338;2023-04-25T10:41:12;14.70;93.00
40053;DHT22;25758;48.200;16.338;2023-04-25T10:43:40;14.60;93.20
40053;DHT22;25758;48.200;16.338;2023-04-25T10:46:32;14.60;93.60
40053;DHT22;25758;48.200;16.338;2023-04-25T10:49:01;14.60;92.90
40053;DHT22;25758;48.200;16.338;2023-04-25T10:51:32;14.80;93.30
40053;DHT22;25758;48.200;16.338;2023-04-25T10:54:02;15.20;93.50
40053;DHT22;25758;48.200;16.338;2023-04-25T10:56:41;15.40;91.80
40053;DHT22;25758;48.200;16.338;2023-04-25T10:59:10;15.90;91.60
40053;DHT22;25758;48.200;16.338;2023-04-25T11:01:38;16.20;91.10
40053;DHT22;25758;48.200;16.338;2023-04-25T11:04:04;16.50;91.40
40053;DHT22;25758;48.200;16.338;2023-04-25T11:06:58;16.80;91.60
40053;DHT22;25758;48.200;16.338;2023-04-25T11:09:26;17.00;90.80
40053;DHT22;25758;48.200;16.338;2023-04-25T11:11:57;17.40;91.10
40053;DHT22;25758;48.200;16.338;2023-04-25T11:14:24;17.60;90.90
40053;DHT22;25758;48.200;16.338;2023-04-25T11:16:57;17.60;89.70
40053;DHT22;25758;48.200;16.338;2023-04-25T11:19:24;17.70;88.80
40053;DHT22;25758;48.200;16.338;2023-04-25T11:21:50;17.70;88.50
40053;DHT22;25758;48.200;16.338;2023-04-25T11:24:17;17.80;86.90
40053;DHT22;25758;48.200;16.338;2023-04-25T11:26:43;17.90;86.20
40053;DHT22;25758;48.200;16.338;2023-04-25T11:29:11;17.70;86.40
40053;DHT22;25758;48.200;16.338;2023-04-25T11:31:37;17.40;87.30
40053;DHT22;25758;48.200;16.338;2023-04-25T11:34:03;17.00;90.00
40053;DHT22;25758;48.200;16.338;2023-04-25T11:36:28;16.40;91.60
40053;DHT22;25758;48.200;16.338;2023-04-25T11:38:54;16.00;94.20
40053;DHT22;25758;48.200;16.338;2023-04-25T11:41:20;15.40;96.70
40053;DHT22;25758;48.200;16.338;2023-04-25T11:43:47;15.00;98.30
40053;DHT22;25758;48.200;16.338;2023-04-25T11:46:14;14.60;98.30
40053;DHT22;25758;48.200;16.338;2023-04-25T11:48:41;14.40;98.80
40053;DHT22;25758;48.200;16.338;2023-04-25T11:51:06;14.30;99.40
40053;DHT22;25758;48.200;16.338;2023-04-25T11:53:32;14.00;99.80
40053;DHT22;25758;48.200;16.338;2023-04-25T11:55:58;13.90;99.60
40053;DHT22;25758;48.200;16.338;2023-04-25T11:58:25;13.80;99.90
40053;DHT22;25758;48.200;16.338;2023-04-25T12:00:50;13.80;99.90
40053;DHT22;25758;48.200;16.338;2023-04-25T12:03:17;13.70;99.90
40053;DHT22;25758;48.200;16.338;2023-04-25T12:05:44;13.80;99.90
40053;DHT22;25758;48.200;16.338;2023-04-25T12:08:14;13.80;99.90
40053;DHT22;25758;48.200;16.338;2023-04-25T12:10:42;13.90;99.90
40053;DHT22;25758;48.200;16.338;2023-04-25T12:13:22;14.10;99.90
40053;DHT22;25758;48.200;16.338;2023-04-25T12:15:48;14.20;99.90
40053;DHT22;25758;48.200;16.338;2023-04-25T12:18:14;14.30;99.90
40053;DHT22;25758;48.200;16.338;2023-04-25T12:20:41;14.40;99.90
40053;DHT22;25758;48.200;16.338;2023-04-25T12:23:07;14.60;99.90
40053;DHT22;25758;48.200;16.338;2023-04-25T12:25:42;14.70;99.90
40053;DHT22;25758;48.200;16.338;2023-04-25T12:28:19;14.70;99.90
40053;DHT22;25758;48.200;16.338;2023-04-25T12:31:04;14.80;99.90
40053;DHT22;25758;48.200;16.338;2023-04-25T12:33:35;14.70;99.70
40053;DHT22;25758;48.200;16.338;2023-04-25T12:36:03;14.70;99.90
40053;DHT22;25758;48.200;16.338;2023-04-25T12:38:39;14.80;99.50
40053;DHT22;25758;48.200;16.338;2023-04-25T12:41:05;14.70;99.70
40053;DHT22;25758;48.200;16.338;2023-04-25T12:43:30;14.70;99.30
40053;DHT22;25758;48.200;16.338;2023-04-25T12:45:56;14.70;99.40
40053;DHT22;25758;48.200;16.338;2023-04-25T12:48:23;14.80;98.70
40053;DHT22;25758;48.200;16.338;2023-04-25T12:50:50;14.80;98.10
40053;DHT22;25758;48.200;16.338;2023-04-25T12:53:17;14.70;97.40
40053;DHT22;25758;48.200;16.338;2023-04-25T12:55:43;14.60;97.10
40053;DHT22;25758;48.200;16.338;2023-04-25T12:58:11;14.60;96.90
40053;DHT22;25758;48.200;16.338;2023-04-25T13:00:37;14.60;97.00
40053;DHT22;25758;48.200;16.338;2023-04-25T13:03:03;14.60;97.00
40053;DHT22;25758;48.200;16.338;2023-04-25T13:05:30;14.70;97.00
40053;DHT22;25758;48.200;16.338;2023-04-25T13:07:56;14.70;96.20
40053;DHT22;25758;48.200;16.338;2023-04-25T13:10:22;14.70;96.70
40053;DHT22;25758;48.200;16.338;2023-04-25T13:12:48;14.80;95.60
40053;DHT22;25758;48.200;16.338;2023-04-25T13:15:13;14.80;96.00
40053;DHT22;25758;48.200;16.338;2023-04-25T13:17:41;14.90;96.00
40053;DHT22;25758;48.200;16.338;2023-04-25T13:20:08;14.90;96.10
40053;DHT22;25758;48.200;16.338;2023-04-25T13:22:41;15.10;95.90
40053;DHT22;25758;48.200;16.338;2023-04-25T13:25:07;15.10;95.50
40053;DHT22;25758;48.200;16.338;2023-04-25T13:27:35;15.10;95.30
40053;DHT22;25758;48.200;16.338;2023-04-25T13:30:03;15.10;95.00
40053;DHT22;25758;48.200;16.338;2023-04-25T13:32:33;15.20;94.50
40053;DHT22;25758;48.200;16.338;2023-04-25T13:34:59;15.20;93.10
40053;DHT22;25758;48.200;16.338;2023-04-25T13:37:25;15.20;92.30
40053;DHT22;25758;48.200;16.338;2023-04-25T13:39:50;15.20;92.30
40053;DHT22;25758;48.200;16.338;2023-04-25T13:42:16;15.30;92.60
40053;DHT22;25758;48.200;16.338;2023-04-25T13:44:42;15.30;92.70
40053;DHT22;25758;48.200;16.338;2023-04-25T13:47:07;15.40;92.40
40053;DHT22;25758;48.200;16.338;2023-04-25T13:49:33;15.40;91.40
40053;DHT22;25758;48.200;16.338;2023-04-25T13:51:59;16.90;92.20
40053;DHT22;25758;48.200;16.338;2023-04-25T13:54:24;15.40;91.60
40053;DHT22;25758;48.200;16.338;2023-04-25T13:56:50;15.40;93.10
40053;DHT22;25758;48.200;16.338;2023-04-25T13:59:16;15.40;93.60
40053;DHT22;25758;48.200;16.338;2023-04-25T14:01:42;15.40;93.30
40053;DHT22;25758;48.200;16.338;2023-04-25T14:04:08;15.40;93.30
40053;DHT22;25758;48.200;16.338;2023-04-25T14:06:34;15.30;93.10
40053;DHT22;25758;48.200;16.338;2023-04-25T14:09:01;15.40;93.30
40053;DHT22;25758;48.200;16.338;2023-04-25T14:11:26;15.30;92.30
40053;DHT22;25758;48.200;16.338;2023-04-25T14:13:52;15.20;92.60
40053;DHT22;25758;48.200;16.338;2023-04-25T14:16:18;15.20;92.50
40053;DHT22;25758;48.200;16.338;2023-04-25T14:18:44;15.20;92.80
40053;DHT22;25758;48.200;16.338;2023-04-25T14:21:09;15.20;93.20
40053;DHT22;25758;48.200;16.338;2023-04-25T14:23:35;15.20;93.30
40053;DHT22;25758;48.200;16.338;2023-04-25T14:26:01;15.20;93.60
40053;DHT22;25758;48.200;16.338;2023-04-25T14:28:27;15.30;93.40
40053;DHT22;25758;48.200;16.338;2023-04-25T14:30:53;15.20;93.50
40053;DHT22;25758;48.200;16.338;2023-04-25T14:33:18;15.20;93.50
40053;DHT22;25758;48.200;16.338;2023-04-25T14:35:44;15.10;94.10
40053;DHT22;25758;48.200;16.338;2023-04-25T14:38:09;15.00;94.80
40053;DHT22;25758;48.200;16.338;2023-04-25T14:40:35;14.90;95.50
40053;DHT22;25758;48.200;16.338;2023-04-25T14:43:02;14.80;95.80
40053;DHT22;25758;48.200;16.338;2023-04-25T14:45:27;14.70;96.30
40053;DHT22;25758;48.200;16.338;2023-04-25T14:47:53;14.70;96.10
40053;DHT22;25758;48.200;16.338;2023-04-25T14:50:19;14.70;95.30
40053;DHT22;25758;48.200;16.338;2023-04-25T14:52:45;14.60;94.70
40053;DHT22;25758;48.200;16.338;2023-04-25T14:55:11;14.60;94.70
40053;DHT22;25758;48.200;16.338;2023-04-25T14:57:37;14.70;94.30
40053;DHT22;25758;48.200;16.338;2023-04-25T15:00:05;14.80;94.40
40053;DHT22;25758;48.200;16.338;2023-04-25T15:02:35;14.90;93.80
40053;DHT22;25758;48.200;16.338;2023-04-25T15:05:00;14.80;93.80
40053;DHT22;25758;48.200;16.338;2023-04-25T15:07:26;14.80;93.80
40053;DHT22;25758;48.200;16.338;2023-04-25T15:09:52;14.80;94.40
40053;DHT22;25758;48.200;16.338;2023-04-25T15:12:18;14.70;94.90
40053;DHT22;25758;48.200;16.338;2023-04-25T15:14:44;14.60;95.50